sensor_id;sensor_type;location;lat;lon;timestamp;P1;durP1;ratioP1;P2;durP2;ratioP2
58017;SDS011;43810;50.860;19.226;2023-04-03T00:00:50;23.70;;;12.27;;
58017;SDS011;43810;50.860;19.226;2023-04-03T00:03:17;27.02;;;11.13;;
58017;SDS011;43810;50.860;19.226;2023-04-03T00:05:43;19.30;;;9.63;;
58017;SDS011;43810;50.860;19.226;2023-04-03T00:08:09;16.80;;;9.00;;
58017;SDS011;43810;50.860;19.226;2023-04-03T00:10:35;16.98;;;7.93;;
58017;SDS011;43810;50.860;19.226;2023-04-03T00:13:06;16.13;;;8.68;;
58017;SDS011;43810;50.860;19.226;2023-04-03T00:15:33;18.23;;;8.13;;
58017;SDS011;43810;50.860;19.226;2023-04-03T00:18:00;17.50;;;7.65;;
58017;SDS011;43810;50.860;19.226;2023-04-03T00:20:26;24.70;;;9.10;;
58017;SDS011;43810;50.860;19.226;2023-04-03T00:22:53;19.50;;;9.18;;
58017;SDS011;43810;50.860;19.226;2023-04-03T00:25:19;15.85;;;8.57;;
58017;SDS011;43810;50.860;19.226;2023-04-03T00:27:45;15.55;;;8.07;;
58017;SDS011;43810;50.860;19.226;2023-04-03T00:30:13;13.60;;;7.57;;
58017;SDS011;43810;50.860;19.226;2023-04-03T00:32:41;9.27;;;5.13;;
58017;SDS011;43810;50.860;19.226;2023-04-03T00:35:07;15.63;;;6.85;;
58017;SDS011;43810;50.860;19.226;2023-04-03T00:37:34;14.02;;;6.13;;
58017;SDS011;43810;50.860;19.226;2023-04-03T00:39:59;14.10;;;7.15;;
58017;SDS011;43810;50.860;19.226;2023-04-03T00:42:26;15.63;;;6.78;;
58017;SDS011;43810;50.860;19.226;2023-04-03T00:47:23;13.10;;;6.50;;
58017;SDS011;43810;50.860;19.226;2023-04-03T00:49:50;14.68;;;6.63;;
58017;SDS011;43810;50.860;19.226;2023-04-03T00:52:19;17.55;;;7.47;;
58017;SDS011;43810;50.860;19.226;2023-04-03T00:54:49;19.77;;;9.65;;
58017;SDS011;43810;50.860;19.226;2023-04-03T00:57:17;22.13;;;11.38;;
58017;SDS011;43810;50.860;19.226;2023-04-03T00:59:48;21.20;;;10.85;;
58017;SDS011;43810;50.860;19.226;2023-04-03T01:02:17;25.98;;;12.55;;
58017;SDS011;43810;50.860;19.226;2023-04-03T01:04:44;27.02;;;12.75;;
58017;SDS011;43810;50.860;19.226;2023-04-03T01:07:15;24.45;;;11.77;;
58017;SDS011;43810;50.860;19.226;2023-04-03T01:09:44;22.03;;;9.73;;
58017;SDS011;43810;50.860;19.226;2023-04-03T01:14:51;19.50;;;9.05;;
58017;SDS011;43810;50.860;19.226;2023-04-03T01:25:15;13.88;;;8.10;;
58017;SDS011;43810;50.860;19.226;2023-04-03T01:27:41;15.77;;;7.78;;
58017;SDS011;43810;50.860;19.226;2023-04-03T01:30:07;19.35;;;8.00;;
58017;SDS011;43810;50.860;19.226;2023-04-03T01:32:34;14.75;;;8.27;;
58017;SDS011;43810;50.860;19.226;2023-04-03T01:34:59;20.88;;;9.10;;
58017;SDS011;43810;50.860;19.226;2023-04-03T01:37:25;18.00;;;8.25;;
58017;SDS011;43810;50.860;19.226;2023-04-03T01:39:51;18.58;;;8.48;;
58017;SDS011;43810;50.860;19.226;2023-04-03T01:42:17;12.70;;;7.18;;
58017;SDS011;43810;50.860;19.226;2023-04-03T01:44:43;12.82;;;5.55;;
58017;SDS011;43810;50.860;19.226;2023-04-03T01:47:10;10.25;;;5.70;;
58017;SDS011;43810;50.860;19.226;2023-04-03T01:49:36;13.95;;;5.28;;
58017;SDS011;43810;50.860;19.226;2023-04-03T01:52:02;17.48;;;5.35;;
58017;SDS011;43810;50.860;19.226;2023-04-03T01:54:28;14.18;;;4.78;;
58017;SDS011;43810;50.860;19.226;2023-04-03T01:56:54;8.77;;;3.85;;
58017;SDS011;43810;50.860;19.226;2023-04-03T01:59:19;13.07;;;4.93;;
58017;SDS011;43810;50.860;19.226;2023-04-03T02:01:46;5.85;;;3.80;;
58017;SDS011;43810;50.860;19.226;2023-04-03T02:04:12;10.13;;;3.95;;
58017;SDS011;43810;50.860;19.226;2023-04-03T02:06:38;6.00;;;3.33;;
58017;SDS011;43810;50.860;19.226;2023-04-03T02:09:04;9.02;;;4.20;;
58017;SDS011;43810;50.860;19.226;2023-04-03T02:11:31;7.70;;;3.75;;
58017;SDS011;43810;50.860;19.226;2023-04-03T02:13:56;7.80;;;2.90;;
58017;SDS011;43810;50.860;19.226;2023-04-03T02:16:22;8.52;;;3.55;;
58017;SDS011;43810;50.860;19.226;2023-04-03T02:18:48;9.60;;;3.75;;
58017;SDS011;43810;50.860;19.226;2023-04-03T02:21:15;8.23;;;3.80;;
58017;SDS011;43810;50.860;19.226;2023-04-03T02:23:41;9.35;;;3.72;;
58017;SDS011;43810;50.860;19.226;2023-04-03T02:26:09;8.68;;;4.40;;
58017;SDS011;43810;50.860;19.226;2023-04-03T02:28:37;11.00;;;3.50;;
58017;SDS011;43810;50.860;19.226;2023-04-03T02:31:04;7.22;;;3.53;;
58017;SDS011;43810;50.860;19.226;2023-04-03T02:33:34;8.02;;;3.55;;
58017;SDS011;43810;50.860;19.226;2023-04-03T02:36:05;11.25;;;3.42;;
58017;SDS011;43810;50.860;19.226;2023-04-03T02:38:31;9.18;;;3.35;;
58017;SDS011;43810;50.860;19.226;2023-04-03T02:41:05;6.88;;;3.55;;
58017;SDS011;43810;50.860;19.226;2023-04-03T02:43:34;6.55;;;3.53;;
58017;SDS011;43810;50.860;19.226;2023-04-03T02:46:00;6.88;;;3.53;;
58017;SDS011;43810;50.860;19.226;2023-04-03T02:48:26;7.07;;;3.08;;
58017;SDS011;43810;50.860;19.226;2023-04-03T02:50:53;6.63;;;3.38;;
58017;SDS011;43810;50.860;19.226;2023-04-03T02:53:19;10.70;;;3.35;;
58017;SDS011;43810;50.860;19.226;2023-04-03T02:55:45;8.07;;;3.47;;
58017;SDS011;43810;50.860;19.226;2023-04-03T02:58:11;6.85;;;3.38;;
58017;SDS011;43810;50.860;19.226;2023-04-03T03:00:38;11.98;;;3.55;;
58017;SDS011;43810;50.860;19.226;2023-04-03T03:03:03;5.47;;;2.88;;
58017;SDS011;43810;50.860;19.226;2023-04-03T03:05:29;8.00;;;3.30;;
58017;SDS011;43810;50.860;19.226;2023-04-03T03:07:55;6.80;;;3.22;;
58017;SDS011;43810;50.860;19.226;2023-04-03T03:10:22;4.25;;;3.08;;
58017;SDS011;43810;50.860;19.226;2023-04-03T03:12:48;4.72;;;3.45;;
58017;SDS011;43810;50.860;19.226;2023-04-03T03:15:15;6.20;;;3.50;;
58017;SDS011;43810;50.860;19.226;2023-04-03T03:17:41;7.80;;;3.65;;
58017;SDS011;43810;50.860;19.226;2023-04-03T03:20:07;9.18;;;3.03;;
58017;SDS011;43810;50.860;19.226;2023-04-03T03:22:34;6.50;;;3.40;;
58017;SDS011;43810;50.860;19.226;2023-04-03T03:25:00;8.75;;;3.25;;
58017;SDS011;43810;50.860;19.226;2023-04-03T03:27:27;5.97;;;3.15;;
58017;SDS011;43810;50.860;19.226;2023-04-03T03:29:53;6.90;;;3.20;;
58017;SDS011;43810;50.860;19.226;2023-04-03T03:32:19;6.50;;;4.10;;
58017;SDS011;43810;50.860;19.226;2023-04-03T03:34:45;5.97;;;3.72;;
58017;SDS011;43810;50.860;19.226;2023-04-03T03:37:12;6.10;;;3.83;;
58017;SDS011;43810;50.860;19.226;2023-04-03T03:39:38;6.90;;;3.92;;
58017;SDS011;43810;50.860;19.226;2023-04-03T03:42:06;6.60;;;3.72;;
58017;SDS011;43810;50.860;19.226;2023-04-03T03:44:33;9.52;;;3.70;;
58017;SDS011;43810;50.860;19.226;2023-04-03T03:46:59;8.02;;;3.22;;
58017;SDS011;43810;50.860;19.226;2023-04-03T03:49:25;8.82;;;3.25;;
58017;SDS011;43810;50.860;19.226;2023-04-03T03:51:51;11.00;;;3.70;;
58017;SDS011;43810;50.860;19.226;2023-04-03T03:54:19;7.45;;;3.92;;
58017;SDS011;43810;50.860;19.226;2023-04-03T03:56:45;5.88;;;3.03;;
58017;SDS011;43810;50.860;19.226;2023-04-03T03:59:12;5.38;;;2.78;;
58017;SDS011;43810;50.860;19.226;2023-04-03T04:01:40;6.90;;;3.40;;
58017;SDS011;43810;50.860;19.226;2023-04-03T04:04:07;6.63;;;3.70;;
58017;SDS011;43810;50.860;19.226;2023-04-03T04:06:32;10.10;;;4.45;;
58017;SDS011;43810;50.860;19.226;2023-04-03T04:09:00;5.35;;;3.40;;
58017;SDS011;43810;50.860;19.226;2023-04-03T04:11:25;9.20;;;3.85;;
58017;SDS011;43810;50.860;19.226;2023-04-03T04:13:54;8.07;;;3.28;;
58017;SDS011;43810;50.860;19.226;2023-04-03T04:16:20;3.33;;;2.50;;
58017;SDS011;43810;50.860;19.226;2023-04-03T04:18:46;9.40;;;3.92;;
58017;SDS011;43810;50.860;19.226;2023-04-03T04:21:12;10.98;;;3.80;;
58017;SDS011;43810;50.860;19.226;2023-04-03T04:23:38;7.43;;;3.72;;
58017;SDS011;43810;50.860;19.226;2023-04-03T04:26:04;9.45;;;3.95;;
58017;SDS011;43810;50.860;19.226;2023-04-03T04:28:32;6.68;;;3.88;;
58017;SDS011;43810;50.860;19.226;2023-04-03T04:30:58;12.15;;;3.28;;
58017;SDS011;43810;50.860;19.226;2023-04-03T04:33:24;7.60;;;4.00;;
58017;SDS011;43810;50.860;19.226;2023-04-03T04:35:49;4.95;;;3.00;;
58017;SDS011;43810;50.860;19.226;2023-04-03T04:38:17;5.88;;;3.03;;
58017;SDS011;43810;50.860;19.226;2023-04-03T04:40:43;13.07;;;5.43;;
58017;SDS011;43810;50.860;19.226;2023-04-03T04:43:09;8.48;;;4.60;;
58017;SDS011;43810;50.860;19.226;2023-04-03T04:45:36;7.22;;;3.70;;
58017;SDS011;43810;50.860;19.226;2023-04-03T04:48:02;8.27;;;3.90;;
58017;SDS011;43810;50.860;19.226;2023-04-03T04:50:28;5.22;;;3.55;;
58017;SDS011;43810;50.860;19.226;2023-04-03T04:52:55;7.90;;;3.80;;
58017;SDS011;43810;50.860;19.226;2023-04-03T04:55:21;10.75;;;3.88;;
58017;SDS011;43810;50.860;19.226;2023-04-03T04:57:49;7.63;;;4.35;;
58017;SDS011;43810;50.860;19.226;2023-04-03T05:00:15;9.60;;;3.72;;
58017;SDS011;43810;50.860;19.226;2023-04-03T05:02:41;8.23;;;4.00;;
58017;SDS011;43810;50.860;19.226;2023-04-03T05:05:07;6.35;;;3.42;;
58017;SDS011;43810;50.860;19.226;2023-04-03T05:07:34;6.15;;;3.17;;
58017;SDS011;43810;50.860;19.226;2023-04-03T05:10:01;8.48;;;4.40;;
58017;SDS011;43810;50.860;19.226;2023-04-03T05:12:29;10.88;;;4.40;;
58017;SDS011;43810;50.860;19.226;2023-04-03T05:14:56;11.68;;;4.25;;
58017;SDS011;43810;50.860;19.226;2023-04-03T05:17:22;10.70;;;4.28;;
58017;SDS011;43810;50.860;19.226;2023-04-03T05:19:48;10.95;;;4.75;;
58017;SDS011;43810;50.860;19.226;2023-04-03T05:22:14;6.38;;;3.60;;
58017;SDS011;43810;50.860;19.226;2023-04-03T05:24:40;5.75;;;3.15;;
58017;SDS011;43810;50.860;19.226;2023-04-03T05:27:08;6.70;;;3.67;;
58017;SDS011;43810;50.860;19.226;2023-04-03T05:29:34;7.55;;;3.92;;
58017;SDS011;43810;50.860;19.226;2023-04-03T05:32:00;10.80;;;4.15;;
58017;SDS011;43810;50.860;19.226;2023-04-03T05:34:25;8.82;;;3.80;;
58017;SDS011;43810;50.860;19.226;2023-04-03T05:36:52;6.22;;;3.45;;
58017;SDS011;43810;50.860;19.226;2023-04-03T05:39:18;11.65;;;3.90;;
58017;SDS011;43810;50.860;19.226;2023-04-03T05:41:45;12.93;;;3.47;;
58017;SDS011;43810;50.860;19.226;2023-04-03T05:44:11;9.43;;;3.63;;
58017;SDS011;43810;50.860;19.226;2023-04-03T05:46:37;7.18;;;3.63;;
58017;SDS011;43810;50.860;19.226;2023-04-03T05:49:03;7.80;;;3.92;;
58017;SDS011;43810;50.860;19.226;2023-04-03T05:51:32;4.60;;;3.05;;
58017;SDS011;43810;50.860;19.226;2023-04-03T05:54:34;8.85;;;3.85;;
58017;SDS011;43810;50.860;19.226;2023-04-03T05:56:55;6.18;;;3.28;;
58017;SDS011;43810;50.860;19.226;2023-04-03T05:59:21;6.82;;;3.22;;
58017;SDS011;43810;50.860;19.226;2023-04-03T06:01:47;9.20;;;3.92;;
58017;SDS011;43810;50.860;19.226;2023-04-03T06:04:14;6.72;;;3.70;;
58017;SDS011;43810;50.860;19.226;2023-04-03T06:09:17;6.00;;;3.88;;
58017;SDS011;43810;50.860;19.226;2023-04-03T06:11:46;5.53;;;3.17;;
58017;SDS011;43810;50.860;19.226;2023-04-03T06:14:15;8.60;;;4.00;;
58017;SDS011;43810;50.860;19.226;2023-04-03T06:16:41;9.02;;;3.38;;
58017;SDS011;43810;50.860;19.226;2023-04-03T06:19:09;8.82;;;4.10;;
58017;SDS011;43810;50.860;19.226;2023-04-03T06:21:35;7.95;;;3.53;;
58017;SDS011;43810;50.860;19.226;2023-04-03T06:24:02;11.38;;;4.53;;
58017;SDS011;43810;50.860;19.226;2023-04-03T06:26:32;7.07;;;3.95;;
58017;SDS011;43810;50.860;19.226;2023-04-03T06:28:58;7.78;;;3.33;;
58017;SDS011;43810;50.860;19.226;2023-04-03T06:31:25;6.45;;;3.13;;
58017;SDS011;43810;50.860;19.226;2023-04-03T06:33:51;5.22;;;3.10;;
58017;SDS011;43810;50.860;19.226;2023-04-03T06:36:18;5.50;;;3.50;;
58017;SDS011;43810;50.860;19.226;2023-04-03T06:38:46;7.97;;;3.78;;
58017;SDS011;43810;50.860;19.226;2023-04-03T06:41:13;3.45;;;2.67;;
58017;SDS011;43810;50.860;19.226;2023-04-03T06:43:40;12.60;;;3.40;;
58017;SDS011;43810;50.860;19.226;2023-04-03T06:46:08;10.40;;;3.28;;
58017;SDS011;43810;50.860;19.226;2023-04-03T06:48:38;7.95;;;3.22;;
58017;SDS011;43810;50.860;19.226;2023-04-03T06:51:06;7.40;;;3.17;;
58017;SDS011;43810;50.860;19.226;2023-04-03T06:53:32;7.50;;;3.40;;
58017;SDS011;43810;50.860;19.226;2023-04-03T06:55:58;3.58;;;1.65;;
58017;SDS011;43810;50.860;19.226;2023-04-03T06:58:24;9.43;;;2.92;;
58017;SDS011;43810;50.860;19.226;2023-04-03T07:00:50;3.92;;;2.58;;
58017;SDS011;43810;50.860;19.226;2023-04-03T07:03:16;3.60;;;2.53;;
58017;SDS011;43810;50.860;19.226;2023-04-03T07:05:43;4.30;;;2.15;;
58017;SDS011;43810;50.860;19.226;2023-04-03T07:08:10;5.55;;;2.72;;
58017;SDS011;43810;50.860;19.226;2023-04-03T07:10:37;5.10;;;2.92;;
58017;SDS011;43810;50.860;19.226;2023-04-03T07:13:03;3.70;;;2.30;;
58017;SDS011;43810;50.860;19.226;2023-04-03T07:15:29;15.63;;;2.95;;
58017;SDS011;43810;50.860;19.226;2023-04-03T07:17:55;3.17;;;2.42;;
58017;SDS011;43810;50.860;19.226;2023-04-03T07:20:21;8.48;;;2.33;;
58017;SDS011;43810;50.860;19.226;2023-04-03T07:22:47;4.85;;;2.42;;
58017;SDS011;43810;50.860;19.226;2023-04-03T07:25:13;5.65;;;2.72;;
58017;SDS011;43810;50.860;19.226;2023-04-03T07:27:39;5.07;;;2.60;;
58017;SDS011;43810;50.860;19.226;2023-04-03T07:30:05;4.18;;;1.95;;
58017;SDS011;43810;50.860;19.226;2023-04-03T07:32:33;2.42;;;1.77;;
58017;SDS011;43810;50.860;19.226;2023-04-03T07:34:59;4.18;;;2.00;;
58017;SDS011;43810;50.860;19.226;2023-04-03T07:37:24;4.07;;;2.13;;
58017;SDS011;43810;50.860;19.226;2023-04-03T07:39:50;3.85;;;2.08;;
58017;SDS011;43810;50.860;19.226;2023-04-03T07:42:16;8.57;;;2.20;;
58017;SDS011;43810;50.860;19.226;2023-04-03T07:44:42;4.30;;;2.17;;
58017;SDS011;43810;50.860;19.226;2023-04-03T07:47:08;4.22;;;2.25;;
58017;SDS011;43810;50.860;19.226;2023-04-03T07:49:34;3.53;;;1.73;;
58017;SDS011;43810;50.860;19.226;2023-04-03T07:52:03;2.58;;;1.60;;
58017;SDS011;43810;50.860;19.226;2023-04-03T07:54:29;3.38;;;2.50;;
58017;SDS011;43810;50.860;19.226;2023-04-03T07:56:55;3.17;;;2.08;;
58017;SDS011;43810;50.860;19.226;2023-04-03T07:59:22;5.63;;;2.17;;
58017;SDS011;43810;50.860;19.226;2023-04-03T08:01:48;5.10;;;1.67;;
58017;SDS011;43810;50.860;19.226;2023-04-03T08:04:14;6.38;;;2.10;;
58017;SDS011;43810;50.860;19.226;2023-04-03T08:06:40;5.97;;;2.10;;
58017;SDS011;43810;50.860;19.226;2023-04-03T08:09:06;5.38;;;1.85;;
58017;SDS011;43810;50.860;19.226;2023-04-03T08:11:33;3.88;;;1.60;;
58017;SDS011;43810;50.860;19.226;2023-04-03T08:13:59;6.35;;;2.38;;
58017;SDS011;43810;50.860;19.226;2023-04-03T08:16:25;5.18;;;1.80;;
58017;SDS011;43810;50.860;19.226;2023-04-03T08:18:53;2.50;;;1.50;;
58017;SDS011;43810;50.860;19.226;2023-04-03T08:21:19;3.85;;;1.20;;
58017;SDS011;43810;50.860;19.226;2023-04-03T08:23:47;3.63;;;1.50;;
58017;SDS011;43810;50.860;19.226;2023-04-03T08:26:17;3.60;;;1.50;;
58017;SDS011;43810;50.860;19.226;2023-04-03T08:28:47;2.22;;;0.95;;
58017;SDS011;43810;50.860;19.226;2023-04-03T08:31:14;4.40;;;1.60;;
58017;SDS011;43810;50.860;19.226;2023-04-03T08:33:44;2.75;;;1.45;;
58017;SDS011;43810;50.860;19.226;2023-04-03T08:36:20;5.57;;;2.67;;
58017;SDS011;43810;50.860;19.226;2023-04-03T08:38:52;1.77;;;1.50;;
58017;SDS011;43810;50.860;19.226;2023-04-03T08:49:57;1.75;;;1.38;;
58017;SDS011;43810;50.860;19.226;2023-04-03T08:52:39;2.92;;;1.50;;
58017;SDS011;43810;50.860;19.226;2023-04-03T08:58:01;1.88;;;1.00;;
58017;SDS011;43810;50.860;19.226;2023-04-03T09:00:32;5.95;;;1.85;;
58017;SDS011;43810;50.860;19.226;2023-04-03T09:03:32;3.08;;;1.52;;
58017;SDS011;43810;50.860;19.226;2023-04-03T09:11:36;3.40;;;1.60;;
58017;SDS011;43810;50.860;19.226;2023-04-03T09:17:04;4.47;;;2.20;;
58017;SDS011;43810;50.860;19.226;2023-04-03T09:19:41;2.40;;;1.85;;
58017;SDS011;43810;50.860;19.226;2023-04-03T09:22:21;2.88;;;1.33;;
58017;SDS011;43810;50.860;19.226;2023-04-03T09:24:55;3.38;;;1.40;;
58017;SDS011;43810;50.860;19.226;2023-04-03T09:27:31;3.97;;;1.60;;
58017;SDS011;43810;50.860;19.226;2023-04-03T09:29:57;3.30;;;1.48;;
58017;SDS011;43810;50.860;19.226;2023-04-03T09:34:54;2.20;;;1.48;;
58017;SDS011;43810;50.860;19.226;2023-04-03T09:37:39;6.30;;;1.50;;
58017;SDS011;43810;50.860;19.226;2023-04-03T09:42:53;3.22;;;1.30;;
58017;SDS011;43810;50.860;19.226;2023-04-03T09:48:04;7.78;;;2.80;;
58017;SDS011;43810;50.860;19.226;2023-04-03T09:50:34;1.40;;;0.98;;
58017;SDS011;43810;50.860;19.226;2023-04-03T09:53:05;1.83;;;1.40;;
58017;SDS011;43810;50.860;19.226;2023-04-03T09:55:33;3.70;;;1.27;;
58017;SDS011;43810;50.860;19.226;2023-04-03T09:58:22;3.65;;;1.52;;
58017;SDS011;43810;50.860;19.226;2023-04-03T10:00:54;1.85;;;1.20;;
58017;SDS011;43810;50.860;19.226;2023-04-03T10:03:34;1.70;;;1.15;;
58017;SDS011;43810;50.860;19.226;2023-04-03T10:06:04;3.05;;;1.52;;
58017;SDS011;43810;50.860;19.226;2023-04-03T10:08:59;4.25;;;1.50;;
58017;SDS011;43810;50.860;19.226;2023-04-03T10:11:29;3.58;;;1.63;;
58017;SDS011;43810;50.860;19.226;2023-04-03T10:14:00;3.22;;;1.50;;
58017;SDS011;43810;50.860;19.226;2023-04-03T10:21:59;2.08;;;1.40;;
58017;SDS011;43810;50.860;19.226;2023-04-03T10:27:46;5.18;;;1.70;;
58017;SDS011;43810;50.860;19.226;2023-04-03T10:30:27;2.55;;;1.67;;
58017;SDS011;43810;50.860;19.226;2023-04-03T10:36:36;4.25;;;1.60;;
58017;SDS011;43810;50.860;19.226;2023-04-03T10:46:48;3.83;;;1.85;;
58017;SDS011;43810;50.860;19.226;2023-04-03T10:49:39;3.42;;;1.75;;
58017;SDS011;43810;50.860;19.226;2023-04-03T10:57:40;2.22;;;1.27;;
58017;SDS011;43810;50.860;19.226;2023-04-03T11:00:09;3.38;;;1.20;;
58017;SDS011;43810;50.860;19.226;2023-04-03T11:02:48;3.08;;;1.48;;
58017;SDS011;43810;50.860;19.226;2023-04-03T11:11:02;2.58;;;1.70;;
58017;SDS011;43810;50.860;19.226;2023-04-03T11:13:34;1.85;;;1.58;;
58017;SDS011;43810;50.860;19.226;2023-04-03T11:16:01;3.15;;;1.40;;
58017;SDS011;43810;50.860;19.226;2023-04-03T11:18:46;1.38;;;1.20;;
58017;SDS011;43810;50.860;19.226;2023-04-03T11:24:41;7.75;;;1.38;;
58017;SDS011;43810;50.860;19.226;2023-04-03T11:27:19;2.78;;;1.33;;
58017;SDS011;43810;50.860;19.226;2023-04-03T11:29:49;2.65;;;1.40;;
58017;SDS011;43810;50.860;19.226;2023-04-03T11:34:53;2.25;;;1.80;;
58017;SDS011;43810;50.860;19.226;2023-04-03T11:40:05;3.72;;;1.58;;
58017;SDS011;43810;50.860;19.226;2023-04-03T11:42:38;5.63;;;1.60;;
58017;SDS011;43810;50.860;19.226;2023-04-03T11:45:15;2.63;;;1.70;;
58017;SDS011;43810;50.860;19.226;2023-04-03T11:53:01;3.08;;;1.50;;
58017;SDS011;43810;50.860;19.226;2023-04-03T12:24:24;3.55;;;1.60;;
58017;SDS011;43810;50.860;19.226;2023-04-03T12:29:46;3.03;;;1.33;;
58017;SDS011;43810;50.860;19.226;2023-04-03T12:48:20;3.55;;;1.88;;
58017;SDS011;43810;50.860;19.226;2023-04-03T12:50:50;3.00;;;1.50;;
58017;SDS011;43810;50.860;19.226;2023-04-03T12:53:24;3.83;;;1.75;;
58017;SDS011;43810;50.860;19.226;2023-04-03T12:56:19;3.38;;;1.60;;
58017;SDS011;43810;50.860;19.226;2023-04-03T12:58:53;3.67;;;1.23;;
58017;SDS011;43810;50.860;19.226;2023-04-03T13:01:21;3.63;;;1.77;;
58017;SDS011;43810;50.860;19.226;2023-04-03T13:03:50;3.60;;;2.03;;
58017;SDS011;43810;50.860;19.226;2023-04-03T13:08:57;6.15;;;2.33;;
58017;SDS011;43810;50.860;19.226;2023-04-03T13:11:27;1.70;;;1.42;;
58017;SDS011;43810;50.860;19.226;2023-04-03T13:14:02;7.28;;;1.88;;
58017;SDS011;43810;50.860;19.226;2023-04-03T13:16:31;4.60;;;2.15;;
58017;SDS011;43810;50.860;19.226;2023-04-03T13:18:58;2.20;;;1.35;;
58017;SDS011;43810;50.860;19.226;2023-04-03T13:21:28;5.47;;;1.58;;
58017;SDS011;43810;50.860;19.226;2023-04-03T13:23:59;3.28;;;1.90;;
58017;SDS011;43810;50.860;19.226;2023-04-03T13:26:28;4.88;;;1.95;;
58017;SDS011;43810;50.860;19.226;2023-04-03T13:28:59;3.90;;;1.67;;
58017;SDS011;43810;50.860;19.226;2023-04-03T13:31:33;8.00;;;1.65;;
58017;SDS011;43810;50.860;19.226;2023-04-03T13:34:20;4.13;;;1.13;;
58017;SDS011;43810;50.860;19.226;2023-04-03T13:41:47;3.15;;;1.48;;
58017;SDS011;43810;50.860;19.226;2023-04-03T13:46:48;1.92;;;1.48;;
58017;SDS011;43810;50.860;19.226;2023-04-03T13:49:41;1.83;;;1.42;;
58017;SDS011;43810;50.860;19.226;2023-04-03T13:55:03;2.67;;;1.40;;
58017;SDS011;43810;50.860;19.226;2023-04-03T13:57:55;5.70;;;1.70;;
58017;SDS011;43810;50.860;19.226;2023-04-03T14:03:03;2.47;;;1.17;;
58017;SDS011;43810;50.860;19.226;2023-04-03T14:05:39;1.85;;;1.13;;
58017;SDS011;43810;50.860;19.226;2023-04-03T14:08:05;2.63;;;1.38;;
58017;SDS011;43810;50.860;19.226;2023-04-03T14:10:32;2.25;;;1.40;;
58017;SDS011;43810;50.860;19.226;2023-04-03T14:13:01;2.70;;;1.63;;
58017;SDS011;43810;50.860;19.226;2023-04-03T14:15:28;2.70;;;1.55;;
58017;SDS011;43810;50.860;19.226;2023-04-03T14:17:55;7.15;;;2.38;;
58017;SDS011;43810;50.860;19.226;2023-04-03T14:20:22;3.08;;;1.63;;
58017;SDS011;43810;50.860;19.226;2023-04-03T14:22:51;1.20;;;1.10;;
58017;SDS011;43810;50.860;19.226;2023-04-03T14:25:17;5.25;;;1.02;;
58017;SDS011;43810;50.860;19.226;2023-04-03T14:27:45;9.68;;;1.33;;
58017;SDS011;43810;50.860;19.226;2023-04-03T14:30:18;2.35;;;1.77;;
58017;SDS011;43810;50.860;19.226;2023-04-03T14:32:47;4.22;;;2.20;;
58017;SDS011;43810;50.860;19.226;2023-04-03T14:35:14;2.95;;;1.65;;
58017;SDS011;43810;50.860;19.226;2023-04-03T14:37:41;4.38;;;1.90;;
58017;SDS011;43810;50.860;19.226;2023-04-03T14:40:15;4.82;;;1.80;;
58017;SDS011;43810;50.860;19.226;2023-04-03T14:42:43;4.05;;;2.00;;
58017;SDS011;43810;50.860;19.226;2023-04-03T14:45:10;3.17;;;1.55;;
58017;SDS011;43810;50.860;19.226;2023-04-03T14:47:42;4.43;;;1.92;;
58017;SDS011;43810;50.860;19.226;2023-04-03T14:50:19;7.22;;;2.17;;
58017;SDS011;43810;50.860;19.226;2023-04-03T14:52:50;5.28;;;1.60;;
58017;SDS011;43810;50.860;19.226;2023-04-03T14:55:19;1.25;;;1.15;;
58017;SDS011;43810;50.860;19.226;2023-04-03T14:57:46;3.25;;;1.85;;
58017;SDS011;43810;50.860;19.226;2023-04-03T15:00:16;2.90;;;1.50;;
58017;SDS011;43810;50.860;19.226;2023-04-03T15:02:44;2.40;;;2.20;;
58017;SDS011;43810;50.860;19.226;2023-04-03T15:05:13;3.65;;;1.48;;
58017;SDS011;43810;50.860;19.226;2023-04-03T15:07:46;3.60;;;1.45;;
58017;SDS011;43810;50.860;19.226;2023-04-03T15:10:21;2.80;;;1.45;;
58017;SDS011;43810;50.860;19.226;2023-04-03T15:12:51;3.08;;;1.70;;
58017;SDS011;43810;50.860;19.226;2023-04-03T15:15:18;6.60;;;2.40;;
58017;SDS011;43810;50.860;19.226;2023-04-03T15:17:45;14.38;;;4.65;;
58017;SDS011;43810;50.860;19.226;2023-04-03T15:20:22;21.33;;;6.82;;
58017;SDS011;43810;50.860;19.226;2023-04-03T15:22:50;7.00;;;3.13;;
58017;SDS011;43810;50.860;19.226;2023-04-03T15:25:17;4.97;;;2.28;;
58017;SDS011;43810;50.860;19.226;2023-04-03T15:27:43;3.33;;;1.63;;
58017;SDS011;43810;50.860;19.226;2023-04-03T15:30:14;3.90;;;1.80;;
58017;SDS011;43810;50.860;19.226;2023-04-03T15:32:41;2.55;;;1.77;;
58017;SDS011;43810;50.860;19.226;2023-04-03T15:35:08;2.20;;;1.60;;
58017;SDS011;43810;50.860;19.226;2023-04-03T15:37:33;4.75;;;1.52;;
58017;SDS011;43810;50.860;19.226;2023-04-03T15:40:00;3.33;;;1.75;;
58017;SDS011;43810;50.860;19.226;2023-04-03T15:42:25;4.68;;;2.75;;
58017;SDS011;43810;50.860;19.226;2023-04-03T15:44:53;1.70;;;1.30;;
58017;SDS011;43810;50.860;19.226;2023-04-03T15:47:19;4.35;;;2.60;;
58017;SDS011;43810;50.860;19.226;2023-04-03T15:49:45;4.55;;;2.10;;
58017;SDS011;43810;50.860;19.226;2023-04-03T15:52:11;3.78;;;1.83;;
58017;SDS011;43810;50.860;19.226;2023-04-03T15:54:37;3.25;;;1.45;;
58017;SDS011;43810;50.860;19.226;2023-04-03T15:57:03;2.83;;;1.45;;
58017;SDS011;43810;50.860;19.226;2023-04-03T15:59:29;8.52;;;3.28;;
58017;SDS011;43810;50.860;19.226;2023-04-03T16:01:57;9.23;;;4.25;;
58017;SDS011;43810;50.860;19.226;2023-04-03T16:04:25;8.93;;;4.50;;
58017;SDS011;43810;50.860;19.226;2023-04-03T16:06:52;11.70;;;4.80;;
58017;SDS011;43810;50.860;19.226;2023-04-03T16:09:20;8.75;;;3.20;;
58017;SDS011;43810;50.860;19.226;2023-04-03T16:11:46;5.20;;;1.70;;
58017;SDS011;43810;50.860;19.226;2023-04-03T16:14:12;5.40;;;2.05;;
58017;SDS011;43810;50.860;19.226;2023-04-03T16:16:38;7.07;;;2.90;;
58017;SDS011;43810;50.860;19.226;2023-04-03T16:19:05;11.10;;;3.60;;
58017;SDS011;43810;50.860;19.226;2023-04-03T16:21:31;7.95;;;3.67;;
58017;SDS011;43810;50.860;19.226;2023-04-03T16:23:58;7.88;;;3.35;;
58017;SDS011;43810;50.860;19.226;2023-04-03T16:26:25;7.00;;;3.40;;
58017;SDS011;43810;50.860;19.226;2023-04-03T16:28:52;10.63;;;4.13;;
58017;SDS011;43810;50.860;19.226;2023-04-03T16:31:18;5.97;;;2.97;;
58017;SDS011;43810;50.860;19.226;2023-04-03T16:33:45;2.90;;;1.50;;
58017;SDS011;43810;50.860;19.226;2023-04-03T16:36:11;5.60;;;1.60;;
58017;SDS011;43810;50.860;19.226;2023-04-03T16:38:37;5.30;;;2.10;;
58017;SDS011;43810;50.860;19.226;2023-04-03T16:41:02;6.03;;;2.78;;
58017;SDS011;43810;50.860;19.226;2023-04-03T16:43:30;4.05;;;1.73;;
58017;SDS011;43810;50.860;19.226;2023-04-03T16:45:57;4.05;;;2.05;;
58017;SDS011;43810;50.860;19.226;2023-04-03T16:48:23;5.50;;;2.25;;
58017;SDS011;43810;50.860;19.226;2023-04-03T16:50:49;8.15;;;3.65;;
58017;SDS011;43810;50.860;19.226;2023-04-03T16:53:19;9.85;;;4.50;;
58017;SDS011;43810;50.860;19.226;2023-04-03T16:55:46;7.60;;;3.55;;
58017;SDS011;43810;50.860;19.226;2023-04-03T16:58:12;7.95;;;2.90;;
58017;SDS011;43810;50.860;19.226;2023-04-03T17:00:38;8.02;;;4.03;;
58017;SDS011;43810;50.860;19.226;2023-04-03T17:03:04;8.07;;;4.18;;
58017;SDS011;43810;50.860;19.226;2023-04-03T17:05:30;5.22;;;2.78;;
58017;SDS011;43810;50.860;19.226;2023-04-03T17:07:56;6.63;;;3.03;;
58017;SDS011;43810;50.860;19.226;2023-04-03T17:10:23;4.47;;;3.03;;